Time;durP1;ratioP1;P1;durP2;ratioP2;P2;SDS_P1;SDS_P2;PMS_P1;PMS_P2;Temp;Humidity;BMP_temperature;BMP_pressure;BME280_temperature;BME280_humidity;BME280_pressure;Samples;Min_cycle;Max_cycle;Signal;HPM_P1;HPM_P2
2022/01/21 00:01:48;;;;;;;5.75;3.63;;;;;;;13.83;52.82;96929.59;5117250;28;20015;-27
2022/01/21 00:04:14;;;;;;;4.88;3.70;;;;;;;13.80;53.17;96933.94;5116643;28;20030;-26
2022/01/21 00:06:39;;;;;;;5.05;3.83;;;;;;;13.81;52.60;96930.03;5117051;28;20031;-26
2022/01/21 00:09:06;;;;;;;4.95;3.55;;;;;;;13.82;53.08;96934.28;5116755;28;20058;-26
2022/01/21 00:11:31;;;;;;;5.38;3.55;;;;;;;13.78;53.00;96938.31;5116811;28;20387;-26
2022/01/21 00:14:00;;;;;;;5.65;3.50;;;;;;;13.83;53.11;96941.25;5116684;28;20030;-26
2022/01/21 00:16:27;;;;;;;4.57;3.28;;;;;;;13.78;53.07;96930.13;5116685;28;20020;-26
2022/01/21 00:19:07;;;;;;;5.68;3.25;;;;;;;13.81;53.01;96935.47;5116419;28;20019;-26
2022/01/21 00:30:23;;;;;;;4.38;3.08;;;;;;;13.78;52.64;96933.63;5116387;28;20103;-26
2022/01/21 00:32:39;;;;;;;5.18;3.13;;;;;;;13.79;52.62;96937.09;5112053;28;20040;-26
2022/01/21 00:35:06;;;;;;;5.70;2.85;;;;;;;13.82;52.41;96939.72;5116334;28;20472;-26
2022/01/21 00:37:31;;;;;;;4.60;3.17;;;;;;;13.79;52.40;96937.88;5116222;28;20107;-26
2022/01/21 00:39:59;;;;;;;3.70;2.90;;;;;;;13.83;52.02;96935.03;5116175;28;20440;-26
2022/01/21 00:45:07;;;;;;;4.85;3.17;;;;;;;13.73;52.52;96927.94;5116333;28;20020;-27
2022/01/21 00:47:33;;;;;;;5.05;3.47;;;;;;;13.76;52.26;96933.28;5116086;28;20047;-28
2022/01/21 00:49:58;;;;;;;4.15;3.00;;;;;;;13.70;52.51;96937.00;5116098;28;20403;-26
2022/01/21 00:52:24;;;;;;;4.40;3.35;;;;;;;13.70;52.68;96931.53;5115554;28;20107;-26
2022/01/21 00:54:49;;;;;;;3.30;2.92;;;;;;;13.75;52.58;96937.19;5115844;28;20486;-26
2022/01/21 00:57:15;;;;;;;3.65;3.08;;;;;;;13.76;52.49;96937.97;5115948;28;20081;-26
2022/01/21 00:59:40;;;;;;;4.03;2.78;;;;;;;13.74;51.88;96940.34;5115534;28;20104;-26
2022/01/21 01:02:06;;;;;;;4.45;3.20;;;;;;;13.72;52.49;96938.09;5115796;28;20417;-26
2022/01/21 01:04:32;;;;;;;5.38;2.95;;;;;;;13.68;52.32;96940.16;5115674;28;20031;-26
2022/01/21 01:06:57;;;;;;;3.47;2.55;;;;;;;13.76;52.28;96938.72;5115813;28;20365;-26
2022/01/21 01:09:23;;;;;;;3.88;3.25;;;;;;;13.70;52.36;96943.22;5115828;28;20410;-26
2022/01/21 01:22:27;;;;;;;3.58;2.90;;;;;;;13.70;51.59;96915.19;5115859;28;20027;-26
2022/01/21 01:27:40;;;;;;;4.75;2.53;;;;;;;13.71;51.82;96920.22;5115258;28;20034;-26
2022/01/21 01:30:09;;;;;;;4.15;2.60;;;;;;;13.63;52.31;96922.34;5115244;28;20024;-26
2022/01/21 01:32:35;;;;;;;3.55;2.25;;;;;;;13.64;52.19;96923.13;5115187;28;20028;-26
2022/01/21 01:35:01;;;;;;;3.88;2.55;;;;;;;13.68;52.05;96917.56;5115041;28;20093;-26
2022/01/21 01:37:39;;;;;;;4.03;2.60;;;;;;;13.69;52.10;96908.97;5115357;28;20015;-27
2022/01/21 01:50:54;;;;;;;4.28;2.70;;;;;;;13.66;52.11;96909.84;5115153;28;20028;-27
2022/01/21 01:53:24;;;;;;;4.88;3.03;;;;;;;13.67;51.80;96905.91;5114854;28;20069;-26
2022/01/21 01:55:51;;;;;;;5.68;3.08;;;;;;;13.64;51.85;96904.81;5115010;28;20023;-26
2022/01/21 01:58:16;;;;;;;3.83;2.78;;;;;;;13.63;52.22;96911.47;5114293;28;20048;-26
2022/01/21 02:00:42;;;;;;;5.22;3.30;;;;;;;13.69;51.69;96895.34;5114659;28;20067;-28
2022/01/21 02:03:10;;;;;;;3.42;2.85;;;;;;;13.63;51.83;96897.84;5114344;28;20395;-26
2022/01/21 02:05:37;;;;;;;3.63;2.88;;;;;;;13.63;51.86;96899.78;5114622;28;20049;-26
2022/01/21 02:08:04;;;;;;;3.60;2.70;;;;;;;13.65;51.92;96895.44;5114291;28;20019;-26
2022/01/21 02:10:29;;;;;;;3.75;3.00;;;;;;;13.67;51.63;96881.38;5114312;28;20030;-27
2022/01/21 02:13:03;;;;;;;5.80;3.10;;;;;;;13.64;51.71;96880.28;5114240;28;20023;-28
2022/01/21 02:15:29;;;;;;;4.15;2.70;;;;;;;13.63;51.95;96870.56;5114677;28;20035;-26
2022/01/21 02:23:25;;;;;;;4.32;2.72;;;;;;;13.62;51.87;96869.03;5114112;28;20062;-27
2022/01/21 02:25:50;;;;;;;3.70;2.70;;;;;;;13.51;51.83;96871.34;5114164;28;20496;-26
2022/01/21 02:28:16;;;;;;;4.15;2.20;;;;;;;13.49;51.87;96864.78;5114219;28;20027;-27
2022/01/21 02:30:58;;;;;;;3.42;2.20;;;;;;;13.57;51.50;96860.66;5114376;28;20576;-26
2022/01/21 02:33:25;;;;;;;4.28;2.67;;;;;;;13.56;51.59;96861.88;5114099;28;20041;-26
2022/01/21 02:35:51;;;;;;;3.40;2.17;;;;;;;13.54;51.47;96858.81;5113889;28;20019;-26
2022/01/21 02:38:17;;;;;;;4.55;2.30;;;;;;;13.57;51.47;96864.16;5113891;28;20027;-26
2022/01/21 02:40:44;;;;;;;3.28;2.20;;;;;;;13.59;51.12;96861.00;5113936;28;20363;-26
2022/01/21 02:43:11;;;;;;;3.20;2.38;;;;;;;13.55;51.63;96860.34;5113828;28;20072;-26
2022/01/21 02:45:38;;;;;;;3.55;2.30;;;;;;;13.56;51.27;96861.88;5114038;28;20023;-26
2022/01/21 02:48:07;;;;;;;4.55;2.00;;;;;;;13.58;51.25;96856.75;5095647;28;20471;-26
2022/01/21 02:50:33;;;;;;;3.92;2.20;;;;;;;13.52;51.28;96872.09;5113772;28;20100;-26
2022/01/21 02:53:27;;;;;;;2.40;2.00;;;;;;;13.58;50.92;96865.69;5114011;28;20475;-26
2022/01/21 02:55:53;;;;;;;2.55;1.90;;;;;;;13.56;51.03;96867.31;5113968;28;20027;-26
2022/01/21 02:58:18;;;;;;;2.58;1.83;;;;;;;13.63;50.85;96867.09;5113420;28;20043;-27
2022/01/21 03:00:44;;;;;;;3.17;1.90;;;;;;;13.51;50.76;96862.38;5113905;28;20027;-27
2022/01/21 03:03:09;;;;;;;2.45;1.85;;;;;;;13.55;50.61;96874.72;5113703;28;20020;-27
2022/01/21 03:05:38;;;;;;;3.22;2.00;;;;;;;13.55;50.69;96871.22;5113602;28;20020;-26
2022/01/21 03:08:05;;;;;;;2.78;2.08;;;;;;;13.58;50.67;96873.09;5113680;28;20020;-26
2022/01/21 03:10:30;;;;;;;2.70;1.88;;;;;;;13.61;50.33;96885.84;5113358;28;20084;-26
2022/01/21 03:12:56;;;;;;;3.50;1.90;;;;;;;13.53;50.39;96879.84;5113654;28;20019;-26
2022/01/21 03:15:21;;;;;;;5.32;1.80;;;;;;;13.51;50.63;96892.38;5115368;28;20475;-26
2022/01/21 03:17:47;;;;;;;2.95;1.50;;;;;;;13.52;50.77;96883.00;5117674;28;20022;-26
2022/01/21 03:20:12;;;;;;;2.33;1.70;;;;;;;13.41;50.99;96890.72;5117997;28;20020;-26
2022/01/21 03:22:38;;;;;;;2.00;1.55;;;;;;;13.53;50.45;96885.28;5117998;28;20028;-26
2022/01/21 03:25:07;;;;;;;4.40;2.00;;;;;;;13.55;50.51;96882.13;5117620;28;20189;-26
2022/01/21 03:27:33;;;;;;;3.20;1.70;;;;;;;13.57;50.42;96882.47;5117597;28;20034;-26
2022/01/21 03:29:59;;;;;;;2.47;1.40;;;;;;;13.46;50.42;96874.63;5117524;28;20025;-27
2022/01/21 03:32:25;;;;;;;4.07;1.92;;;;;;;13.50;50.58;96871.75;5117417;28;20020;-27
2022/01/21 03:34:51;;;;;;;3.35;1.90;;;;;;;13.54;50.78;96869.72;5117706;28;20019;-26
2022/01/21 03:37:17;;;;;;;3.28;1.33;;;;;;;13.53;50.64;96868.94;5117422;28;20440;-27
2022/01/21 03:39:43;;;;;;;2.45;1.60;;;;;;;13.63;50.37;96869.81;5099019;28;20439;-26
2022/01/21 03:42:08;;;;;;;4.50;2.00;;;;;;;13.56;50.46;96859.91;5099099;28;20062;-27
2022/01/21 03:44:34;;;;;;;3.72;1.52;;;;;;;13.54;50.65;96859.56;5117495;28;20099;-26
2022/01/21 03:47:00;;;;;;;2.47;1.70;;;;;;;13.56;50.49;96856.41;5117437;28;20031;-26
2022/01/21 03:49:27;;;;;;;3.22;1.70;;;;;;;13.51;50.75;96851.50;5117443;28;20156;-27
2022/01/21 03:51:53;;;;;;;3.17;1.70;;;;;;;13.50;51.19;96849.97;5117294;28;20043;-28
2022/01/21 03:54:18;;;;;;;3.90;1.73;;;;;;;13.51;51.23;96848.78;5117070;28;20066;-27
2022/01/21 03:56:44;;;;;;;1.98;1.52;;;;;;;13.53;50.93;96852.59;5117032;28;20024;-26
2022/01/21 03:59:09;;;;;;;3.40;1.60;;;;;;;13.49;51.18;96854.66;5098489;28;20113;-26
2022/01/21 04:01:35;;;;;;;4.22;2.05;;;;;;;13.54;50.75;96850.63;5117408;28;20019;-26
2022/01/21 04:04:01;;;;;;;2.95;1.60;;;;;;;13.53;50.99;96846.38;5116996;28;20051;-27
2022/01/21 04:06:26;;;;;;;3.15;1.88;;;;;;;13.51;51.10;96843.31;5117468;28;20464;-26
2022/01/21 04:08:52;;;;;;;3.47;2.00;;;;;;;13.51;50.87;96851.50;5098644;28;20027;-26
2022/01/21 04:11:17;;;;;;;3.05;1.90;;;;;;;13.52;50.77;96859.22;5098429;28;20069;-26
2022/01/21 04:13:43;;;;;;;3.42;1.98;;;;;;;13.54;50.65;96853.34;5116645;28;20023;-26
2022/01/21 04:16:09;;;;;;;2.38;1.83;;;;;;;13.51;50.73;96852.25;5116816;28;20028;-26
2022/01/21 04:18:34;;;;;;;3.15;1.92;;;;;;;13.54;50.80;96853.34;5116716;28;20378;-26
2022/01/21 04:21:00;;;;;;;4.07;1.98;;;;;;;13.46;51.21;96852.06;5116681;28;20023;-26
2022/01/21 04:23:25;;;;;;;5.38;2.33;;;;;;;13.46;51.33;96860.22;5116577;28;20065;-26
2022/01/21 04:25:52;;;;;;;3.85;2.15;;;;;;;13.51;50.85;96854.97;5116524;28;20027;-27
2022/01/21 04:28:18;;;;;;;3.20;1.88;;;;;;;13.43;51.17;96852.91;5115955;28;20059;-26
2022/01/21 04:30:44;;;;;;;3.08;1.88;;;;;;;13.48;51.04;96861.28;5116458;28;20547;-26
2022/01/21 04:33:10;;;;;;;6.15;2.30;;;;;;;13.47;51.20;96848.91;5116382;28;20103;-26
2022/01/21 04:35:36;;;;;;;5.22;2.33;;;;;;;13.47;50.89;96861.75;5116402;28;20023;-26
2022/01/21 04:38:05;;;;;;;3.00;1.95;;;;;;;13.52;51.09;96859.22;5116622;28;20460;-26
2022/01/21 04:40:36;;;;;;;2.72;1.80;;;;;;;13.55;51.13;96868.50;5116464;28;20030;-27
2022/01/21 04:48:32;;;;;;;2.78;1.83;;;;;;;13.45;51.12;96851.28;5116349;28;20031;-26
2022/01/21 04:51:10;;;;;;;3.88;2.35;;;;;;;13.51;50.81;96854.97;5116087;28;20028;-26
2022/01/21 04:53:36;;;;;;;3.95;2.05;;;;;;;13.52;50.70;96855.75;5116000;28;20467;-26
2022/01/21 04:56:01;;;;;;;3.28;2.17;;;;;;;13.46;51.06;96849.31;5115812;28;20115;-26
2022/01/21 04:58:27;;;;;;;4.80;2.30;;;;;;;13.47;50.98;96856.31;5115663;28;20055;-26
2022/01/21 05:00:52;;;;;;;5.93;2.63;;;;;;;13.49;50.89;96851.16;5115945;28;20033;-26
2022/01/21 05:03:18;;;;;;;3.70;2.50;;;;;;;13.48;51.16;96853.13;5115918;28;20023;-26
2022/01/21 05:05:43;;;;;;;5.13;2.33;;;;;;;13.52;50.75;96847.56;5115762;28;20551;-26
2022/01/21 05:08:20;;;;;;;3.25;2.30;;;;;;;13.41;51.13;96855.31;5115907;28;20085;-26
2022/01/21 05:10:46;;;;;;;3.95;2.47;;;;;;;13.54;50.77;96856.09;5115785;28;20482;-26
2022/01/21 05:13:15;;;;;;;5.05;2.40;;;;;;;13.47;50.95;96850.84;5115330;28;20027;-28
2022/01/21 05:15:59;;;;;;;3.28;2.17;;;;;;;13.51;50.71;96854.22;5115553;28;20028;-26
2022/01/21 05:18:25;;;;;;;4.38;2.65;;;;;;;13.46;51.02;96852.81;5115331;28;20522;-26
2022/01/21 05:20:51;;;;;;;5.13;2.63;;;;;;;13.48;50.97;96855.09;5097242;28;20110;-26
2022/01/21 05:23:16;;;;;;;6.32;2.90;;;;;;;13.49;51.03;96853.88;5115297;28;20432;-27
2022/01/21 05:25:42;;;;;;;4.90;2.67;;;;;;;13.46;51.16;96849.31;5115500;28;20031;-26
2022/01/21 05:28:08;;;;;;;4.00;3.10;;;;;;;13.44;50.69;96854.44;5118207;27;20024;-27
2022/01/21 05:30:34;;;;;;;5.65;2.88;;;;;;;13.58;50.28;96864.94;5133047;27;20047;-26
2022/01/21 05:32:59;;;;;;;3.67;2.28;;;;;;;13.45;50.84;96861.41;5127641;27;20059;-26
2022/01/21 05:35:25;;;;;;;4.82;3.05;;;;;;;13.32;50.69;96874.25;5113178;28;20055;-26
2022/01/21 05:37:51;;;;;;;6.47;2.45;;;;;;;13.38;51.12;96872.50;5112642;28;20027;-26
2022/01/21 05:40:18;;;;;;;3.75;2.45;;;;;;;13.37;51.25;96866.28;5112247;28;20038;-26
2022/01/21 05:42:43;;;;;;;3.33;2.30;;;;;;;13.40;51.21;96878.28;5113064;28;20028;-26
2022/01/21 05:47:35;;;;;;;3.65;2.47;;;;;;;13.46;50.53;96874.63;5133341;27;20023;-26
2022/01/21 05:50:01;;;;;;;3.25;2.40;;;;;;;13.50;50.45;96885.38;5133420;27;20329;-26
2022/01/21 05:52:36;;;;;;;4.63;2.55;;;;;;;13.55;50.89;96885.63;5132995;27;20023;-26
2022/01/21 05:55:03;;;;;;;3.78;2.53;;;;;;;13.39;50.75;96887.66;5133306;27;20031;-26
2022/01/21 05:57:30;;;;;;;3.13;2.22;;;;;;;13.38;51.04;96897.03;5133099;27;20034;-26
2022/01/21 05:59:56;;;;;;;3.17;2.22;;;;;;;13.35;50.75;96900.63;5133136;27;20080;-26
2022/01/21 06:02:21;;;;;;;4.88;2.10;;;;;;;13.41;50.50;96902.38;5133080;27;20019;-26
2022/01/21 06:04:51;;;;;;;3.78;2.10;;;;;;;13.30;50.92;96899.19;5133289;27;20387;-26
2022/01/21 06:07:17;;;;;;;4.93;2.42;;;;;;;13.43;50.57;96902.72;5133037;27;20027;-27
2022/01/21 06:09:43;;;;;;;5.35;2.63;;;;;;;13.41;50.65;96902.38;5133062;27;20027;-26
2022/01/21 06:12:09;;;;;;;4.75;2.35;;;;;;;13.41;50.59;96905.09;5132701;27;20163;-26
2022/01/21 06:14:36;;;;;;;5.38;2.47;;;;;;;13.45;50.66;96902.28;5132659;27;20066;-26
2022/01/21 06:17:02;;;;;;;5.75;2.45;;;;;;;13.42;50.69;96900.41;5132826;27;20092;-26
2022/01/21 06:19:28;;;;;;;3.33;1.98;;;;;;;13.42;51.13;96901.19;5132715;27;20035;-27
2022/01/21 06:21:53;;;;;;;4.00;2.05;;;;;;;13.42;50.34;96905.88;5124815;27;20027;-26
2022/01/21 06:24:19;;;;;;;3.88;1.80;;;;;;;13.43;50.53;96907.41;5111048;28;20027;-28
2022/01/21 06:26:45;;;;;;;3.88;1.90;;;;;;;13.36;50.83;96913.81;5111942;28;20027;-26
2022/01/21 06:29:10;;;;;;;3.65;1.85;;;;;;;13.41;50.75;96912.50;5111756;28;20306;-26
2022/01/21 06:31:36;;;;;;;2.90;1.90;;;;;;;13.39;50.60;96912.19;5112266;28;20035;-28
2022/01/21 06:34:01;;;;;;;3.42;2.30;;;;;;;13.40;50.76;96919.16;5111829;28;20501;-26
2022/01/21 06:36:28;;;;;;;3.28;1.95;;;;;;;13.38;50.75;96921.53;5112112;28;20028;-26
2022/01/21 06:38:54;;;;;;;4.95;2.20;;;;;;;13.39;50.46;96928.53;5111761;28;20085;-27
2022/01/21 06:41:19;;;;;;;4.57;1.98;;;;;;;13.44;50.22;96926.03;5111570;28;20456;-28
2022/01/21 06:43:44;;;;;;;4.07;2.10;;;;;;;13.42;50.18;96922.97;5111776;28;20029;-26
2022/01/21 06:46:11;;;;;;;4.65;2.40;;;;;;;13.41;50.41;96926.91;5111948;28;20465;-26
2022/01/21 06:48:37;;;;;;;3.67;2.00;;;;;;;13.39;50.27;96928.53;5112149;28;20020;-26
2022/01/21 06:51:03;;;;;;;4.80;2.63;;;;;;;13.41;50.27;96937.81;5111303;28;20035;-27
2022/01/21 06:53:29;;;;;;;4.80;2.58;;;;;;;13.37;50.02;96942.56;5111767;28;20035;-26
2022/01/21 06:55:54;;;;;;;4.35;2.38;;;;;;;13.36;50.26;96948.44;5111815;28;20415;-26
2022/01/21 06:58:20;;;;;;;4.63;2.60;;;;;;;13.33;50.02;96949.34;5111314;28;20078;-26
2022/01/21 07:00:47;;;;;;;3.88;2.30;;;;;;;13.37;50.12;96945.31;5111623;28;20073;-28
2022/01/21 07:03:12;;;;;;;5.85;2.65;;;;;;;13.38;50.08;96955.00;5111476;28;20035;-27
2022/01/21 07:05:38;;;;;;;4.65;2.72;;;;;;;13.39;50.18;96956.53;5111488;28;20032;-26
2022/01/21 07:08:04;;;;;;;4.75;2.50;;;;;;;13.36;50.12;96962.84;5093205;28;20031;-26
2022/01/21 07:10:30;;;;;;;5.50;2.80;;;;;;;13.40;49.86;96973.66;5111272;28;20062;-27
2022/01/21 07:12:56;;;;;;;4.55;3.10;;;;;;;13.28;50.01;96972.41;5111510;28;20047;-26
2022/01/21 07:15:22;;;;;;;3.85;2.35;;;;;;;13.34;50.50;96975.38;5110995;28;20028;-27
2022/01/21 07:17:49;;;;;;;4.95;3.30;;;;;;;13.27;50.80;96977.09;5110950;28;20081;-26
2022/01/21 07:20:15;;;;;;;3.60;2.63;;;;;;;13.33;50.15;96979.31;5111050;28;20031;-26
2022/01/21 07:22:42;;;;;;;4.95;3.08;;;;;;;13.28;50.29;96978.63;5126050;27;20031;-26
2022/01/21 07:25:08;;;;;;;4.93;2.70;;;;;;;13.30;49.97;96980.91;5130212;27;20034;-28
2022/01/21 07:27:34;;;;;;;4.43;2.90;;;;;;;13.34;49.87;96986.28;5131703;27;20102;-27
2022/01/21 07:30:00;;;;;;;5.57;2.95;;;;;;;13.29;50.06;96976.66;5132000;27;20149;-26
2022/01/21 07:32:26;;;;;;;6.53;3.05;;;;;;;13.29;50.07;96980.16;5131841;27;20419;-26
2022/01/21 07:34:51;;;;;;;5.22;3.05;;;;;;;13.34;49.84;96980.84;5131746;27;20177;-27
2022/01/21 07:37:17;;;;;;;6.40;3.53;;;;;;;13.36;49.79;96992.03;5132590;27;20027;-27
2022/01/21 07:39:43;;;;;;;5.22;3.30;;;;;;;13.31;49.98;96982.44;5133878;28;20042;-27
2022/01/21 07:42:08;;;;;;;6.13;3.67;;;;;;;13.33;49.80;96990.97;5133806;28;20110;-26
2022/01/21 07:44:34;;;;;;;6.43;3.65;;;;;;;13.25;50.03;96995.81;5133834;28;20102;-26
2022/01/21 07:47:00;;;;;;;6.80;3.45;;;;;;;13.34;49.72;96997.19;5133757;28;20023;-26
2022/01/21 07:49:25;;;;;;;6.38;3.33;;;;;;;13.20;50.26;96996.34;5133631;28;20534;-26
2022/01/21 07:51:51;;;;;;;5.47;3.58;;;;;;;12.44;51.98;97001.34;5133852;28;20019;-28
2022/01/21 07:54:17;;;;;;;6.45;3.72;;;;;;;11.70;53.47;97005.66;5133446;28;20475;-27
2022/01/21 07:56:42;;;;;;;6.15;4.43;;;;;;;12.18;52.62;97003.09;5133082;28;20035;-26
2022/01/21 07:59:10;;;;;;;7.60;4.82;;;;;;;12.50;51.65;97001.56;5132911;28;20042;-26
2022/01/21 08:01:37;;;;;;;6.70;4.20;;;;;;;12.80;50.97;97008.63;5134008;27;20500;-26
2022/01/21 08:04:03;;;;;;;7.03;4.25;;;;;;;12.94;50.44;97006.34;5137375;27;20058;-26
2022/01/21 08:06:29;;;;;;;7.15;4.45;;;;;;;13.00;50.24;97005.78;5137461;27;20428;-26
2022/01/21 08:08:55;;;;;;;7.78;4.50;;;;;;;13.03;49.89;97005.72;5136886;27;20485;-26
2022/01/21 08:11:21;;;;;;;7.28;3.85;;;;;;;13.09;50.08;97009.47;5137195;27;20035;-26
2022/01/21 08:13:47;;;;;;;6.32;3.80;;;;;;;13.11;50.04;97015.22;5136901;27;20082;-26
2022/01/21 08:16:12;;;;;;;5.65;3.40;;;;;;;13.14;50.22;97021.78;5136974;27;20027;-26
2022/01/21 08:18:38;;;;;;;4.65;3.22;;;;;;;13.10;50.27;97015.69;5137069;27;20030;-26
2022/01/21 08:21:04;;;;;;;4.60;2.95;;;;;;;13.15;49.78;97021.38;5137206;27;20023;-28
2022/01/21 08:23:29;;;;;;;5.07;2.90;;;;;;;13.14;50.04;97017.13;5136928;27;20019;-26
2022/01/21 08:25:54;;;;;;;6.00;3.08;;;;;;;13.16;50.08;97028.38;5136865;27;20042;-26
2022/01/21 08:28:20;;;;;;;4.80;3.00;;;;;;;13.19;50.01;97030.22;5136313;27;20029;-26
2022/01/21 08:30:46;;;;;;;4.40;3.00;;;;;;;13.14;50.21;97038.91;5136774;27;20015;-26
2022/01/21 08:33:11;;;;;;;3.65;2.83;;;;;;;13.02;50.69;97042.31;5136308;27;20090;-27
2022/01/21 08:35:37;;;;;;;3.25;2.45;;;;;;;13.17;50.26;97037.28;5136589;27;20126;-26
2022/01/21 08:38:04;;;;;;;3.10;2.60;;;;;;;13.17;50.13;97042.75;5135982;27;20558;-26
2022/01/21 08:40:30;;;;;;;5.38;2.70;;;;;;;13.17;50.33;97046.22;5136522;27;20064;-26
2022/01/21 08:42:55;;;;;;;4.35;2.60;;;;;;;13.25;50.14;97053.03;5136893;27;20383;-26
2022/01/21 08:45:24;;;;;;;3.97;2.55;;;;;;;13.24;50.05;97054.22;5136690;27;20021;-26
2022/01/21 08:47:51;;;;;;;4.43;2.40;;;;;;;13.20;50.05;97059.00;5118119;27;20019;-28
2022/01/21 08:50:19;;;;;;;7.35;3.15;;;;;;;13.13;50.74;97050.97;5136436;27;20019;-26
2022/01/21 08:52:46;;;;;;;4.90;2.45;;;;;;;13.18;50.49;97052.44;5136351;27;20033;-26
2022/01/21 08:55:14;;;;;;;4.78;2.60;;;;;;;13.17;50.23;97054.41;5136379;27;20424;-26
2022/01/21 08:57:43;;;;;;;4.28;2.55;;;;;;;13.18;50.70;97063.34;5136260;27;20023;-27
2022/01/21 09:00:15;;;;;;;3.22;2.72;;;;;;;13.20;50.62;97056.28;5136672;27;20106;-26
2022/01/21 09:02:41;;;;;;;4.15;2.70;;;;;;;13.21;50.33;97059.78;5136289;27;20019;-26
2022/01/21 09:05:07;;;;;;;2.60;2.13;;;;;;;13.23;50.30;97073.69;5136277;27;20064;-26
2022/01/21 09:07:32;;;;;;;5.63;2.30;;;;;;;13.21;50.36;97071.44;5136264;27;20497;-26
2022/01/21 09:09:58;;;;;;;3.83;1.95;;;;;;;13.16;50.58;97071.94;5136295;27;20019;-26
2022/01/21 09:12:23;;;;;;;5.78;2.30;;;;;;;13.17;50.54;97068.03;5135101;27;20027;-26
2022/01/21 09:14:50;;;;;;;3.67;2.50;;;;;;;13.16;50.45;97069.22;5136225;27;20030;-26
2022/01/21 09:17:16;;;;;;;2.95;2.05;;;;;;;13.17;50.27;97069.97;5136121;27;20098;-26
2022/01/21 09:19:41;;;;;;;5.70;2.50;;;;;;;13.12;50.57;97081.34;5136058;27;20034;-27
2022/01/21 09:22:07;;;;;;;4.82;2.45;;;;;;;13.17;50.47;97078.16;5136006;27;20026;-26
2022/01/21 09:24:33;;;;;;;3.95;2.25;;;;;;;13.23;50.28;97082.63;5135375;27;20019;-26
2022/01/21 09:27:02;;;;;;;3.00;2.08;;;;;;;13.22;50.30;97077.66;5135652;27;20405;-26
2022/01/21 09:29:28;;;;;;;4.05;2.25;;;;;;;13.24;50.25;97080.69;5135484;27;20096;-26
2022/01/21 09:31:53;;;;;;;4.70;2.42;;;;;;;13.20;50.63;97080.78;5135800;27;20069;-26
2022/01/21 09:34:19;;;;;;;3.97;3.05;;;;;;;13.24;50.51;97092.34;5135356;27;20046;-28
2022/01/21 09:36:45;;;;;;;7.70;3.53;;;;;;;13.25;50.10;97076.75;5133061;27;20038;-26
2022/01/21 09:39:12;;;;;;;6.13;4.57;;;;;;;13.19;50.76;97079.25;5134579;27;20019;-26
2022/01/21 09:41:39;;;;;;;7.43;4.22;;;;;;;13.26;50.37;97086.47;5117320;27;20053;-26
2022/01/21 09:44:07;;;;;;;6.53;4.30;;;;;;;13.22;50.53;97077.66;5135360;27;20027;-26
2022/01/21 09:46:35;;;;;;;8.50;4.75;;;;;;;13.13;51.04;97083.66;5135595;27;20046;-26
2022/01/21 09:49:09;;;;;;;6.30;4.43;;;;;;;13.18;50.87;97083.16;5135322;27;20015;-26
2022/01/21 09:51:36;;;;;;;7.00;3.67;;;;;;;13.26;50.35;97089.97;5135271;27;20023;-26
2022/01/21 09:54:06;;;;;;;7.07;4.30;;;;;;;13.32;50.33;97084.78;5135142;27;20027;-26
2022/01/21 09:56:34;;;;;;;7.70;4.50;;;;;;;13.28;50.42;97097.72;5135143;27;20019;-26
2022/01/21 09:59:00;;;;;;;6.28;4.10;;;;;;;13.13;50.77;97094.53;5134919;27;20047;-26
2022/01/21 10:01:26;;;;;;;6.53;4.13;;;;;;;13.11;51.39;97096.91;5135191;27;20026;-25
2022/01/21 10:03:52;;;;;;;7.57;4.65;;;;;;;13.26;50.64;97100.84;5134968;27;20026;-26
2022/01/21 10:06:23;;;;;;;5.85;3.88;;;;;;;13.19;50.88;97092.13;5135037;27;20035;-25
2022/01/21 10:08:52;;;;;;;6.18;4.05;;;;;;;13.24;50.77;97097.03;5135077;27;20019;-26
2022/01/21 10:11:20;;;;;;;7.40;4.60;;;;;;;13.28;50.74;97092.25;5116626;27;20080;-26
2022/01/21 10:13:47;;;;;;;5.07;4.00;;;;;;;13.24;50.73;97089.63;5134823;27;20050;-26
2022/01/21 10:16:13;;;;;;;9.27;4.45;;;;;;;13.21;50.97;97101.38;5134748;27;20023;-26
2022/01/21 10:18:40;;;;;;;7.72;3.80;;;;;;;12.97;51.71;97099.25;5134806;27;20176;-27
2022/01/21 10:21:12;;;;;;;7.38;4.60;;;;;;;13.14;51.50;97106.19;5134797;27;20105;-28
2022/01/21 10:23:43;;;;;;;8.75;5.10;;;;;;;13.19;50.82;97098.31;5134667;27;20018;-26
2022/01/21 10:26:11;;;;;;;8.00;5.07;;;;;;;13.03;51.81;97100.25;5134401;27;20030;-26
2022/01/21 10:28:45;;;;;;;7.70;4.63;;;;;;;13.11;51.28;97098.88;5134811;27;20383;-26
2022/01/21 10:31:16;;;;;;;6.95;4.85;;;;;;;13.16;50.98;97103.84;5134748;27;20015;-26
2022/01/21 10:33:47;;;;;;;8.15;5.35;;;;;;;13.16;51.14;97101.91;5134571;27;20031;-26
2022/01/21 10:36:23;;;;;;;7.30;4.55;;;;;;;13.17;51.41;97103.44;5134488;27;20064;-26
2022/01/21 10:38:51;;;;;;;6.68;4.47;;;;;;;13.03;51.94;97105.69;5134488;27;20498;-26
2022/01/21 10:41:19;;;;;;;9.82;5.07;;;;;;;13.07;51.53;97109.88;5134396;27;20027;-26
2022/01/21 10:44:03;;;;;;;6.93;4.90;;;;;;;13.27;51.31;97109.78;5134343;27;20023;-26
2022/01/21 10:46:28;;;;;;;7.22;4.70;;;;;;;12.89;52.13;97121.19;5134229;27;20118;-26
2022/01/21 10:49:11;;;;;;;5.65;4.18;;;;;;;12.76;52.42;97122.25;5134614;27;20102;-26
2022/01/21 10:51:39;;;;;;;7.57;4.53;;;;;;;12.73;52.27;97104.09;5134597;27;20114;-26
2022/01/21 10:54:18;;;;;;;6.60;4.30;;;;;;;13.03;51.56;97103.75;5134075;27;20033;-26
2022/01/21 10:57:08;;;;;;;5.95;3.83;;;;;;;13.14;51.59;97104.28;5134309;27;20034;-26
2022/01/21 10:59:57;;;;;;;5.85;3.92;;;;;;;13.15;51.27;97094.91;5134203;27;20610;-26
2022/01/21 11:02:49;;;;;;;7.75;4.93;;;;;;;12.68;52.51;97099.13;5134086;27;20046;-26
2022/01/21 11:05:23;;;;;;;4.70;3.60;;;;;;;12.91;51.01;97101.69;5134307;27;20026;-26
2022/01/21 11:07:57;;;;;;;6.18;3.95;;;;;;;13.02;51.51;97102.22;5134019;28;20026;-26
2022/01/21 11:10:31;;;;;;;6.78;3.92;;;;;;;12.87;51.94;97103.72;5134182;28;20443;-26
2022/01/21 11:13:01;;;;;;;5.68;4.22;;;;;;;12.31;52.92;97097.63;5134273;28;20027;-26
2022/01/21 11:15:45;;;;;;;5.78;3.88;;;;;;;12.94;51.71;97107.06;5134476;28;20026;-26
2022/01/21 11:18:15;;;;;;;4.53;3.50;;;;;;;13.16;51.20;97092.97;5134269;28;20062;-26
2022/01/21 11:20:42;;;;;;;6.55;3.80;;;;;;;13.07;51.14;97088.09;5133951;28;20107;-26
2022/01/21 11:23:09;;;;;;;6.55;3.60;;;;;;;13.08;51.43;97086.91;5133980;28;20080;-26
2022/01/21 11:25:48;;;;;;;4.85;3.60;;;;;;;13.12;51.02;97090.28;5133995;28;20027;-26
2022/01/21 11:28:50;;;;;;;4.63;3.58;;;;;;;13.16;50.66;97092.97;5133851;28;20038;-26
2022/01/21 11:31:18;;;;;;;4.38;3.35;;;;;;;13.14;50.86;97082.50;5134007;28;20025;-26
2022/01/21 11:33:44;;;;;;;5.65;3.45;;;;;;;12.87;51.80;97084.66;5134012;28;20052;-26
2022/01/21 11:36:10;;;;;;;6.47;3.60;;;;;;;13.09;51.12;97087.66;5135366;27;20061;-26
2022/01/21 11:38:40;;;;;;;5.13;3.78;;;;;;;13.21;50.46;97098.66;5138196;27;20055;-26
2022/01/21 11:41:07;;;;;;;4.78;3.20;;;;;;;13.07;50.76;97088.09;5138228;27;20428;-26
2022/01/21 11:43:34;;;;;;;4.88;3.35;;;;;;;13.09;50.96;97096.59;5137920;27;20059;-26
2022/01/21 11:51:31;;;;;;;5.15;3.50;;;;;;;12.80;51.50;97101.19;5137873;27;20034;-26
2022/01/21 11:53:57;;;;;;;5.13;3.55;;;;;;;12.51;52.37;97101.06;5119218;27;20031;-26
2022/01/21 11:56:34;;;;;;;5.53;3.33;;;;;;;12.90;50.90;97102.88;5137574;27;20023;-26
2022/01/21 11:59:27;;;;;;;5.13;3.13;;;;;;;13.11;50.45;97105.09;5137324;27;20047;-26
2022/01/21 12:01:53;;;;;;;5.80;3.90;;;;;;;13.08;50.66;97100.53;5124437;27;20039;-26
2022/01/21 12:04:31;;;;;;;4.72;3.70;;;;;;;12.70;51.28;97096.75;5136975;27;20026;-26
2022/01/21 12:07:01;;;;;;;4.22;3.05;;;;;;;13.08;50.64;97095.06;5137601;27;20059;-27
2022/01/21 12:09:55;;;;;;;4.72;3.08;;;;;;;13.06;50.58;97091.25;5137266;27;20023;-27
2022/01/21 12:12:23;;;;;;;4.40;3.47;;;;;;;12.80;50.73;97079.41;5125906;27;20045;-26
2022/01/21 12:14:54;;;;;;;6.20;3.30;;;;;;;13.11;50.31;97096.16;5137131;27;20522;-26
2022/01/21 12:17:42;;;;;;;5.47;3.47;;;;;;;13.07;50.54;97093.53;5137262;27;20023;-26
2022/01/21 12:20:08;;;;;;;6.40;3.40;;;;;;;13.15;50.39;97088.69;5136756;27;20082;-26
2022/01/21 12:22:34;;;;;;;4.47;3.53;;;;;;;12.94;50.61;97095.41;5137096;27;20027;-26
2022/01/21 12:25:07;;;;;;;4.90;3.08;;;;;;;13.05;50.49;97089.69;5137106;27;20048;-26
2022/01/21 12:27:35;;;;;;;7.75;3.33;;;;;;;13.01;50.32;97078.13;5136832;27;20057;-26
2022/01/21 12:30:27;;;;;;;6.30;3.42;;;;;;;13.09;50.09;97080.25;5137012;27;20023;-26
2022/01/21 12:33:00;;;;;;;6.10;3.58;;;;;;;13.19;49.88;97084.72;5137227;27;20083;-26